createdAt,value
2022-09-10T00:00:49.875Z,14.50
2022-09-10T00:03:17.888Z,14.50
2022-09-10T00:05:46.389Z,14.50
2022-09-10T00:08:15.820Z,14.50
2022-09-10T00:10:44.831Z,14.40
2022-09-10T00:13:12.980Z,14.40
2022-09-10T00:15:41.252Z,14.30
2022-09-10T00:18:10.597Z,14.40
2022-09-10T00:20:43.850Z,14.30
2022-09-10T00:23:12.157Z,14.30
2022-09-10T00:25:42.530Z,14.30
2022-09-10T00:28:10.529Z,14.30
2022-09-10T00:30:41.356Z,14.30
2022-09-10T00:33:09.772Z,14.30
2022-09-10T00:35:37.857Z,14.20
2022-09-10T00:38:05.925Z,14.20
2022-09-10T00:40:34.286Z,14.00
2022-09-10T00:43:03.780Z,13.90
2022-09-10T00:45:33.871Z,14.00
2022-09-10T00:48:03.550Z,13.90
2022-09-10T00:50:33.348Z,14.00
2022-09-10T00:53:04.440Z,13.90
2022-09-10T00:55:32.636Z,14.00
2022-09-10T00:58:00.815Z,13.90
2022-09-10T01:00:31.278Z,13.90
2022-09-10T01:02:59.749Z,13.90
2022-09-10T01:05:29.403Z,13.90
2022-09-10T01:07:58.143Z,13.90
2022-09-10T01:10:28.089Z,13.80
2022-09-10T01:13:17.440Z,13.80
2022-09-10T01:15:48.898Z,13.80
2022-09-10T01:18:23.524Z,13.80
2022-09-10T01:21:01.799Z,13.70
2022-09-10T01:23:58.158Z,13.70
2022-09-10T01:26:32.969Z,13.70
2022-09-10T01:29:04.366Z,13.70
2022-09-10T01:31:38.210Z,13.70
2022-09-10T01:34:11.656Z,13.50
2022-09-10T01:36:40.784Z,13.50
2022-09-10T01:39:08.814Z,13.60
2022-09-10T01:41:37.134Z,13.50
2022-09-10T01:44:11.368Z,13.50
2022-09-10T01:46:47.936Z,13.40
2022-09-10T01:49:26.336Z,13.40
2022-09-10T01:52:05.786Z,13.40
2022-09-10T01:54:47.006Z,13.40
2022-09-10T01:57:20.637Z,13.40
2022-09-10T01:59:54.434Z,13.30
2022-09-10T02:02:23.483Z,13.20
2022-09-10T02:04:51.714Z,13.20
2022-09-10T02:07:20.149Z,13.20
2022-09-10T02:09:48.390Z,13.20
2022-09-10T02:12:19.867Z,13.20
2022-09-10T02:14:57.888Z,13.10
2022-09-10T02:17:38.047Z,13.10
2022-09-10T02:20:06.973Z,13.10
2022-09-10T02:22:36.330Z,13.10
2022-09-10T02:25:04.596Z,13.10
2022-09-10T02:27:32.991Z,13.10
2022-09-10T02:30:03.176Z,13.10
2022-09-10T02:32:31.733Z,13.10
2022-09-10T02:34:59.824Z,13.00
2022-09-10T02:37:29.800Z,13.00
2022-09-10T02:39:57.834Z,13.00
2022-09-10T02:42:26.375Z,13.00
2022-09-10T02:44:54.606Z,13.00
2022-09-10T02:47:23.994Z,13.00
2022-09-10T02:49:51.988Z,12.90
2022-09-10T02:52:20.012Z,12.90
2022-09-10T02:54:49.190Z,12.90
2022-09-10T02:57:17.524Z,12.90
2022-09-10T02:59:45.477Z,12.80
2022-09-10T03:02:13.828Z,12.80
2022-09-10T03:04:43.193Z,12.80
2022-09-10T03:07:12.048Z,12.80
2022-09-10T03:09:41.145Z,12.80
2022-09-10T03:12:09.159Z,12.80
2022-09-10T03:14:37.457Z,12.70
2022-09-10T03:17:06.209Z,12.70
2022-09-10T03:19:34.202Z,12.70
2022-09-10T03:22:03.531Z,12.70
2022-09-10T03:24:34.044Z,12.70
2022-09-10T03:27:02.004Z,12.60
2022-09-10T03:29:31.008Z,12.70
2022-09-10T03:32:01.259Z,12.60
2022-09-10T03:34:29.339Z,12.60
2022-09-10T03:36:57.334Z,12.60
2022-09-10T03:39:26.661Z,12.50
2022-09-10T03:41:54.653Z,12.50
2022-09-10T03:44:22.750Z,12.50
2022-09-10T03:46:52.097Z,12.50
2022-09-10T03:49:20.063Z,12.50
2022-09-10T03:51:48.818Z,12.50
2022-09-10T03:54:17.809Z,12.40
2022-09-10T03:56:47.203Z,12.50
2022-09-10T03:59:15.541Z,12.40
2022-09-10T04:01:43.907Z,12.40
2022-09-10T04:04:12.739Z,12.40
2022-09-10T04:06:40.797Z,12.40
2022-09-10T04:09:09.325Z,12.40
2022-09-10T04:11:37.361Z,12.40
2022-09-10T04:14:07.884Z,12.30
2022-09-10T04:16:38.609Z,12.30
2022-09-10T04:19:08.922Z,12.30
2022-09-10T04:21:37.714Z,12.30
2022-09-10T04:24:06.424Z,12.30
2022-09-10T04:26:34.993Z,12.30
2022-09-10T04:29:02.959Z,12.30
2022-09-10T04:31:32.381Z,12.30
2022-09-10T04:34:07.775Z,12.20
2022-09-10T04:36:36.123Z,12.20
2022-09-10T04:39:04.152Z,12.10
2022-09-10T04:41:32.980Z,12.10
2022-09-10T04:44:01.133Z,12.10
2022-09-10T04:46:29.147Z,12.10
2022-09-10T04:49:00.844Z,12.10
2022-09-10T04:51:28.878Z,12.10
2022-09-10T04:53:59.420Z,12.10
2022-09-10T04:56:31.589Z,12.00
2022-09-10T04:59:00.948Z,12.10
2022-09-10T05:01:31.663Z,12.00
2022-09-10T05:04:00.974Z,12.10
2022-09-10T05:06:28.976Z,12.00
2022-09-10T05:08:57.655Z,12.00
2022-09-10T05:11:27.069Z,12.10
2022-09-10T05:13:55.317Z,12.10
2022-09-10T05:16:26.688Z,12.10
2022-09-10T05:18:56.275Z,12.10
2022-09-10T05:21:27.482Z,12.10
2022-09-10T05:23:57.125Z,12.10
2022-09-10T05:26:26.177Z,12.20
2022-09-10T05:28:55.645Z,12.20
2022-09-10T05:31:23.732Z,12.30
2022-09-10T05:33:51.772Z,12.30
2022-09-10T05:36:20.554Z,12.40
2022-09-10T05:38:51.172Z,12.40
2022-09-10T05:41:19.185Z,12.60
2022-09-10T05:43:49.980Z,12.70
2022-09-10T05:46:18.148Z,12.80
2022-09-10T05:48:50.225Z,13.00
2022-09-10T05:51:19.844Z,13.00
2022-09-10T05:53:51.183Z,13.10
2022-09-10T05:56:20.575Z,13.30
2022-09-10T05:58:49.689Z,13.50
2022-09-10T06:01:18.946Z,13.70
2022-09-10T06:03:46.966Z,13.90
2022-09-10T06:06:14.970Z,14.00
2022-09-10T06:08:53.484Z,14.20
2022-09-10T06:11:44.061Z,14.40
2022-09-10T06:14:14.882Z,14.70
2022-09-10T06:16:43.376Z,14.90
2022-09-10T06:19:12.352Z,15.20
2022-09-10T06:21:40.393Z,15.30
2022-09-10T06:24:10.052Z,15.50
2022-09-10T06:26:39.613Z,15.70
2022-09-10T06:29:12.475Z,15.80
2022-09-10T06:31:42.333Z,15.90
2022-09-10T06:34:10.484Z,16.20
2022-09-10T06:36:38.648Z,16.50
2022-09-10T06:39:07.949Z,16.50
2022-09-10T06:41:49.749Z,16.80
2022-09-10T06:44:45.346Z,16.80
2022-09-10T06:50:10.753Z,17.30
2022-09-10T06:52:41.040Z,17.50
2022-09-10T06:55:11.850Z,17.70
2022-09-10T06:57:44.891Z,17.90
2022-09-10T07:00:15.438Z,18.00
2022-09-10T07:02:46.353Z,18.20
2022-09-10T07:05:14.375Z,18.50
2022-09-10T07:07:43.493Z,18.50
2022-09-10T07:10:11.708Z,18.40
2022-09-10T07:12:40.117Z,18.90
2022-09-10T07:15:12.094Z,19.10
2022-09-10T07:17:40.337Z,19.30
2022-09-10T07:20:09.628Z,19.50
2022-09-10T07:22:46.052Z,19.70
2022-09-10T07:25:15.901Z,20.00
2022-09-10T07:28:02.697Z,20.20
2022-09-10T07:30:35.930Z,20.30
2022-09-10T07:33:04.073Z,20.50
2022-09-10T07:35:32.392Z,20.60
2022-09-10T07:38:01.194Z,20.90
2022-09-10T07:40:29.479Z,21.00
2022-09-10T07:42:59.181Z,21.00
2022-09-10T07:45:30.302Z,21.40
2022-09-10T07:48:00.648Z,21.60
2022-09-10T07:50:29.761Z,22.00
2022-09-10T07:52:57.696Z,22.20
2022-09-10T07:55:26.866Z,22.30
2022-09-10T07:57:59.533Z,22.70
2022-09-10T08:00:29.251Z,22.40
2022-09-10T08:03:03.151Z,22.70
2022-09-10T08:05:31.372Z,22.70
2022-09-10T08:08:00.643Z,23.10
2022-09-10T08:10:29.797Z,23.30
2022-09-10T08:12:59.434Z,23.50
2022-09-10T08:15:27.921Z,23.70
2022-09-10T08:17:59.808Z,23.90
2022-09-10T08:20:29.592Z,23.80
2022-09-10T08:22:59.737Z,24.10
2022-09-10T08:25:27.712Z,24.20
2022-09-10T08:27:57.281Z,24.50
2022-09-10T08:30:25.336Z,24.50
2022-09-10T08:32:54.804Z,24.60
2022-09-10T08:35:22.863Z,24.90
2022-09-10T08:37:52.577Z,25.00
2022-09-10T08:40:21.511Z,25.30
2022-09-10T08:42:50.177Z,25.20
2022-09-10T08:45:22.061Z,24.40
2022-09-10T08:47:54.546Z,25.00
2022-09-10T08:50:33.102Z,25.40
2022-09-10T08:53:06.744Z,25.30
2022-09-10T08:55:35.639Z,24.90
2022-09-10T08:58:06.916Z,25.60
2022-09-10T09:00:37.892Z,25.80
2022-09-10T09:03:13.269Z,26.20
2022-09-10T09:05:46.700Z,26.40
2022-09-10T09:08:18.273Z,26.20
2022-09-10T09:10:49.223Z,26.80
2022-09-10T09:13:38.168Z,25.80
2022-09-10T09:16:21.366Z,25.90
2022-09-10T09:19:01.924Z,25.90
2022-09-10T09:21:35.268Z,26.00
2022-09-10T09:24:14.075Z,26.50
2022-09-10T09:26:49.831Z,25.50
2022-09-10T09:29:19.942Z,25.90
2022-09-10T09:31:50.068Z,26.40
2022-09-10T09:34:20.184Z,26.50
2022-09-10T09:36:50.753Z,26.70
2022-09-10T09:39:25.613Z,26.20
2022-09-10T09:41:59.078Z,26.40
2022-09-10T09:44:29.408Z,26.60
2022-09-10T09:46:57.493Z,26.20
2022-09-10T09:49:26.241Z,26.30
2022-09-10T09:51:56.743Z,26.00
2022-09-10T09:55:12.692Z,25.90
2022-09-10T09:57:20.566Z,25.60
2022-09-10T09:59:49.424Z,26.40
2022-09-10T10:02:20.349Z,26.40
2022-09-10T10:04:55.995Z,26.40
2022-09-10T10:07:27.794Z,27.00
2022-09-10T10:09:57.123Z,27.40
2022-09-10T10:12:25.081Z,27.10
2022-09-10T10:14:53.434Z,27.50
2022-09-10T10:17:35.865Z,27.90
2022-09-10T10:20:08.533Z,27.60
2022-09-10T10:22:36.722Z,27.60
2022-09-10T10:25:07.713Z,28.10
2022-09-10T10:27:36.813Z,28.60
2022-09-10T10:30:22.703Z,28.40
2022-09-10T10:32:53.749Z,28.10
2022-09-10T10:35:36.069Z,28.10
2022-09-10T10:38:31.492Z,28.20
2022-09-10T10:41:14.492Z,28.40
2022-09-10T10:43:48.349Z,28.60
2022-09-10T10:46:18.401Z,28.80
2022-09-10T10:48:57.771Z,28.10
2022-09-10T10:51:31.968Z,27.90
2022-09-10T10:54:07.591Z,27.40
2022-09-10T10:56:40.794Z,27.90
2022-09-10T10:59:24.911Z,28.50
2022-09-10T11:01:55.021Z,28.00
2022-09-10T11:04:27.336Z,27.10
2022-09-10T11:06:57.482Z,26.50
2022-09-10T11:09:27.026Z,26.00
2022-09-10T11:11:59.925Z,26.60
2022-09-10T11:14:30.332Z,27.30
2022-09-10T11:16:59.581Z,27.80
2022-09-10T11:19:31.382Z,27.50
2022-09-10T11:22:01.225Z,27.00
2022-09-10T11:24:31.162Z,26.60
2022-09-10T11:27:04.350Z,26.60
2022-09-10T11:29:35.437Z,27.40
2022-09-10T11:32:06.253Z,27.90
2022-09-10T11:34:36.557Z,27.80
2022-09-10T11:37:06.376Z,28.40
2022-09-10T11:39:35.536Z,27.60
2022-09-10T11:42:08.254Z,27.10
2022-09-10T11:44:42.017Z,26.80
2022-09-10T11:47:13.378Z,26.40
2022-09-10T11:49:43.687Z,26.20
2022-09-10T11:52:12.514Z,25.80
2022-09-10T11:54:40.501Z,25.80
2022-09-10T11:57:12.237Z,25.90
2022-09-10T12:00:12.002Z,25.70
2022-09-10T12:03:09.454Z,25.50
2022-09-10T12:05:42.456Z,25.40
2022-09-10T12:08:13.837Z,25.30
2022-09-10T12:10:45.488Z,25.20
2022-09-10T12:13:15.170Z,25.60
2022-09-10T12:15:49.325Z,25.50
2022-09-10T12:18:18.741Z,25.50
2022-09-10T12:20:50.436Z,25.70
2022-09-10T12:23:19.416Z,26.20
2022-09-10T12:25:48.453Z,26.30
2022-09-10T12:28:49.700Z,25.70
2022-09-10T12:31:20.030Z,25.20
2022-09-10T12:34:12.416Z,25.10
2022-09-10T12:37:13.025Z,25.20
2022-09-10T12:39:41.057Z,24.90
2022-09-10T12:42:32.017Z,25.40
2022-09-10T12:44:59.980Z,25.50
2022-09-10T12:47:53.080Z,24.70
2022-09-10T12:50:34.486Z,24.20
2022-09-10T12:53:39.403Z,24.40
2022-09-10T12:56:19.236Z,24.50
2022-09-10T12:58:54.460Z,24.90
2022-09-10T13:01:31.415Z,24.70
2022-09-10T13:04:02.975Z,24.80
2022-09-10T13:06:38.317Z,25.30
2022-09-10T13:09:16.915Z,25.10
2022-09-10T13:11:45.853Z,25.10
2022-09-10T13:14:18.848Z,25.40
2022-09-10T13:16:46.823Z,25.30
2022-09-10T13:19:51.155Z,25.20
2022-09-10T13:23:03.857Z,25.50
2022-09-10T13:25:40.306Z,25.20
2022-09-10T13:28:46.483Z,25.30
2022-09-10T13:31:21.786Z,25.20
2022-09-10T13:34:02.032Z,25.00
2022-09-10T13:36:32.108Z,25.10
2022-09-10T13:39:12.317Z,25.00
2022-09-10T13:41:56.147Z,24.90
2022-09-10T13:44:41.165Z,24.70
2022-09-10T13:47:11.692Z,24.80
2022-09-10T13:49:46.686Z,24.60
2022-09-10T13:52:17.144Z,24.60
2022-09-10T13:54:47.959Z,24.40
2022-09-10T13:57:17.719Z,24.40
2022-09-10T13:59:48.009Z,24.00
2022-09-10T14:02:16.254Z,24.10
2022-09-10T14:04:45.223Z,24.40
2022-09-10T14:07:16.358Z,24.40
2022-09-10T14:09:44.456Z,24.40
2022-09-10T14:12:13.853Z,24.50
2022-09-10T14:14:43.260Z,24.50
2022-09-10T14:17:12.106Z,24.60
2022-09-10T14:19:42.526Z,24.70
2022-09-10T14:22:17.041Z,24.60
2022-09-10T14:24:50.619Z,24.50
2022-09-10T14:27:19.973Z,24.60
2022-09-10T14:29:48.270Z,24.40
2022-09-10T14:32:29.982Z,24.20
2022-09-10T14:34:58.010Z,24.10
2022-09-10T14:37:33.319Z,24.10
2022-09-10T14:40:06.837Z,23.90
2022-09-10T14:42:35.809Z,23.60
2022-09-10T14:45:04.001Z,23.50
2022-09-10T14:47:34.959Z,23.60
2022-09-10T14:50:27.234Z,23.50
2022-09-10T14:52:56.600Z,23.20
2022-09-10T14:55:25.341Z,23.20
2022-09-10T14:57:54.222Z,23.10
2022-09-10T15:00:22.205Z,23.10
2022-09-10T15:02:50.672Z,23.10
2022-09-10T15:05:18.853Z,23.00
2022-09-10T15:07:47.418Z,22.90
2022-09-10T15:10:17.091Z,22.90
2022-09-10T15:12:47.064Z,22.90
2022-09-10T15:15:17.406Z,23.00
2022-09-10T15:17:45.672Z,22.90
2022-09-10T15:20:14.561Z,22.50
2022-09-10T15:22:42.548Z,22.40
2022-09-10T15:25:19.595Z,22.40
2022-09-10T15:27:47.559Z,22.40
2022-09-10T15:30:16.578Z,22.40
2022-09-10T15:32:46.051Z,22.50
2022-09-10T15:35:14.001Z,22.30
2022-09-10T15:37:41.985Z,22.30
2022-09-10T15:40:10.942Z,22.20
2022-09-10T15:42:40.324Z,22.00
2022-09-10T15:45:09.703Z,22.10
2022-09-10T15:47:37.681Z,22.10
2022-09-10T15:50:06.668Z,22.00
2022-09-10T15:52:34.932Z,22.00
2022-09-10T15:55:02.896Z,21.90
2022-09-10T15:57:31.904Z,21.90
2022-09-10T16:00:02.641Z,21.90
2022-09-10T16:02:32.355Z,21.80
2022-09-10T16:05:01.152Z,21.70
2022-09-10T16:07:29.457Z,21.50
2022-09-10T16:09:58.834Z,21.50
2022-09-10T16:12:27.530Z,21.50
2022-09-10T16:14:55.822Z,21.50
2022-09-10T16:17:25.444Z,21.60
2022-09-10T16:19:54.481Z,21.50
2022-09-10T16:22:22.457Z,21.60
2022-09-10T16:24:50.409Z,21.50
2022-09-10T16:27:18.440Z,21.50
2022-09-10T16:29:47.070Z,21.40
2022-09-10T16:32:15.055Z,21.50
2022-09-10T16:34:44.355Z,21.50
2022-09-10T16:37:12.555Z,21.50
2022-09-10T16:39:40.952Z,21.30
2022-09-10T16:42:09.777Z,21.20
2022-09-10T16:44:37.739Z,21.10
2022-09-10T16:47:05.889Z,20.90
2022-09-10T16:49:33.831Z,20.90
2022-09-10T16:52:03.470Z,20.80
2022-09-10T16:54:31.951Z,20.70
2022-09-10T16:57:00.192Z,20.50
2022-09-10T16:59:28.300Z,20.60
2022-09-10T17:01:59.539Z,20.50
2022-09-10T17:04:29.223Z,20.50
2022-09-10T17:06:57.853Z,20.40
2022-09-10T17:09:27.467Z,20.30
2022-09-10T17:11:55.438Z,20.20
2022-09-10T17:14:23.709Z,20.20
2022-09-10T17:16:52.141Z,20.20
2022-09-10T17:19:21.275Z,20.10
2022-09-10T17:21:51.268Z,20.00
2022-09-10T17:24:20.849Z,20.00
2022-09-10T17:26:50.433Z,19.90
2022-09-10T17:29:19.289Z,19.80
2022-09-10T17:31:47.644Z,19.80
2022-09-10T17:34:16.170Z,19.70
2022-09-10T17:36:45.646Z,19.60
2022-09-10T17:39:13.798Z,19.40
2022-09-10T17:41:41.958Z,19.40
2022-09-10T17:44:11.337Z,19.30
2022-09-10T17:46:39.394Z,19.30
2022-09-10T17:49:07.376Z,19.30
2022-09-10T17:51:37.422Z,19.10
2022-09-10T17:54:05.444Z,19.10
2022-09-10T17:56:33.455Z,19.00
2022-09-10T17:59:02.682Z,19.00
2022-09-10T18:01:33.048Z,18.90
2022-09-10T18:04:01.092Z,18.90
2022-09-10T18:06:29.406Z,18.80
2022-09-10T18:08:59.022Z,18.80
2022-09-10T18:11:28.258Z,18.80
2022-09-10T18:13:57.198Z,18.70
2022-09-10T18:16:26.615Z,18.60
2022-09-10T18:18:58.277Z,18.60
2022-09-10T18:21:27.173Z,18.60
2022-09-10T18:23:55.816Z,18.60
2022-09-10T18:26:24.554Z,18.50
2022-09-10T18:28:57.186Z,18.40
2022-09-10T18:31:25.351Z,18.40
2022-09-10T18:33:53.721Z,18.30
2022-09-10T18:36:23.577Z,18.30
2022-09-10T18:38:51.531Z,18.20
2022-09-10T18:41:21.063Z,18.20
2022-09-10T18:43:49.476Z,18.10
2022-09-10T18:46:17.854Z,18.10
2022-09-10T18:48:46.715Z,17.90
2022-09-10T18:51:15.585Z,17.90
2022-09-10T18:53:45.551Z,17.90
2022-09-10T18:56:14.533Z,17.90
2022-09-10T18:58:42.539Z,17.80
2022-09-10T19:01:11.942Z,17.80
2022-09-10T19:03:41.986Z,17.80
2022-09-10T19:06:10.574Z,17.80
2022-09-10T19:08:38.693Z,17.70
2022-09-10T19:11:09.093Z,17.70
2022-09-10T19:13:37.081Z,17.70
2022-09-10T19:16:05.291Z,17.60
2022-09-10T19:18:33.836Z,17.60
2022-09-10T19:21:04.534Z,17.50
2022-09-10T19:23:35.041Z,17.50
2022-09-10T19:26:03.203Z,17.50
2022-09-10T19:28:33.553Z,17.40
2022-09-10T19:31:03.102Z,17.40
2022-09-10T19:33:31.110Z,17.40
2022-09-10T19:36:01.914Z,17.40
2022-09-10T19:38:37.587Z,17.40
2022-09-10T19:41:07.144Z,17.40
2022-09-10T19:43:37.275Z,17.40
2022-09-10T19:46:05.474Z,17.40
2022-09-10T19:48:33.468Z,17.40
2022-09-10T19:51:02.720Z,17.40
2022-09-10T19:53:31.460Z,17.40
2022-09-10T19:56:04.615Z,17.40
2022-09-10T19:58:32.640Z,17.30
2022-09-10T20:01:02.066Z,17.30
2022-09-10T20:03:30.016Z,17.30
2022-09-10T20:05:58.267Z,17.30
2022-09-10T20:08:26.271Z,17.20
2022-09-10T20:10:54.240Z,17.20
2022-09-10T20:13:23.453Z,17.20
2022-09-10T20:15:51.475Z,17.20
2022-09-10T20:18:21.227Z,17.20
2022-09-10T20:20:49.206Z,17.10
2022-09-10T20:23:18.306Z,17.00
2022-09-10T20:25:46.315Z,17.00
2022-09-10T20:28:14.593Z,17.00
2022-09-10T20:30:43.871Z,17.00
2022-09-10T20:33:11.821Z,16.90
2022-09-10T20:35:43.949Z,16.90
2022-09-10T20:38:12.825Z,16.80
2022-09-10T20:40:42.723Z,16.80
2022-09-10T20:43:11.895Z,16.70
2022-09-10T20:45:43.704Z,16.60
2022-09-10T20:48:11.653Z,16.60
2022-09-10T20:50:39.628Z,16.60
2022-09-10T20:53:08.915Z,16.60
2022-09-10T20:55:36.893Z,16.60
2022-09-10T20:58:04.842Z,16.60
2022-09-10T21:00:33.645Z,16.60
2022-09-10T21:03:01.707Z,16.60
2022-09-10T21:05:29.683Z,16.60
2022-09-10T21:07:57.665Z,16.50
2022-09-10T21:10:26.981Z,16.50
2022-09-10T21:12:54.959Z,16.40
2022-09-10T21:15:22.915Z,16.50
2022-09-10T21:17:51.433Z,16.50
2022-09-10T21:20:19.621Z,16.40
2022-09-10T21:22:47.604Z,16.50
2022-09-10T21:25:15.661Z,16.40
2022-09-10T21:27:44.985Z,16.50
2022-09-10T21:30:13.472Z,16.40
2022-09-10T21:32:41.439Z,16.40
2022-09-10T21:35:10.733Z,16.40
2022-09-10T21:37:39.409Z,16.40
2022-09-10T21:40:08.617Z,16.40
2022-09-10T21:42:36.637Z,16.40
2022-09-10T21:45:07.126Z,16.40
2022-09-10T21:47:35.409Z,16.40
2022-09-10T21:50:03.957Z,16.30
2022-09-10T21:52:31.916Z,16.30
2022-09-10T21:54:59.888Z,16.30
2022-09-10T21:57:28.461Z,16.30
2022-09-10T21:59:56.432Z,16.40
2022-09-10T22:02:25.789Z,16.30
2022-09-10T22:04:53.833Z,16.30
2022-09-10T22:07:21.798Z,16.20
2022-09-10T22:09:49.848Z,16.30
2022-09-10T22:12:17.796Z,16.30
2022-09-10T22:14:45.773Z,16.30
2022-09-10T22:17:13.725Z,16.20
2022-09-10T22:19:43.780Z,16.10
2022-09-10T22:22:12.182Z,16.10
2022-09-10T22:24:40.655Z,16.00
2022-09-10T22:27:09.264Z,16.00
2022-09-10T22:29:37.258Z,15.90
2022-09-10T22:32:05.289Z,15.90
2022-09-10T22:34:33.272Z,15.80
2022-09-10T22:37:03.204Z,15.70
2022-09-10T22:39:32.044Z,15.70
2022-09-10T22:42:00.046Z,15.70
2022-09-10T22:44:28.029Z,15.60
2022-09-10T22:46:56.278Z,15.60
2022-09-10T22:49:24.272Z,15.60
2022-09-10T22:51:52.221Z,15.60
2022-09-10T22:54:22.482Z,15.60
2022-09-10T22:56:50.430Z,15.60
2022-09-10T22:59:18.410Z,15.50
2022-09-10T23:01:48.196Z,15.50
2022-09-10T23:04:16.403Z,15.40
2022-09-10T23:06:44.391Z,15.40
2022-09-10T23:09:13.471Z,15.30
2022-09-10T23:11:44.062Z,15.30
2022-09-10T23:14:14.052Z,15.30
2022-09-10T23:16:42.767Z,15.30
2022-09-10T23:19:12.962Z,15.20
2022-09-10T23:21:41.566Z,15.30
2022-09-10T23:24:09.571Z,15.20
2022-09-10T23:26:37.511Z,15.10
2022-09-10T23:29:06.877Z,15.10
2022-09-10T23:31:35.518Z,15.00
2022-09-10T23:34:04.524Z,15.00
2022-09-10T23:36:33.741Z,15.10
2022-09-10T23:39:02.101Z,15.00
2022-09-10T23:41:30.121Z,15.00
2022-09-10T23:43:58.345Z,15.00
2022-09-10T23:46:27.707Z,15.00
2022-09-10T23:48:56.466Z,15.00
2022-09-10T23:51:24.616Z,15.00
2022-09-10T23:53:52.588Z,14.90
2022-09-10T23:56:21.728Z,14.90
2022-09-10T23:58:49.771Z,14.90
